createdAt,value
2022-11-16T00:02:55.214Z,84.33728
2022-11-16T00:07:57.111Z,88.45143
2022-11-16T00:12:59.211Z,87.33506
2022-11-16T00:18:03.014Z,87.34428
2022-11-16T00:23:05.118Z,86.41748
2022-11-16T00:28:06.900Z,86.23594
2022-11-16T00:33:08.851Z,87.30731
2022-11-16T00:38:10.796Z,87.29453
2022-11-16T00:43:12.686Z,87.64792
2022-11-16T00:48:14.723Z,88.3634
2022-11-16T00:53:16.723Z,89.63354
2022-11-16T00:58:18.628Z,90.10891
2022-11-16T01:03:20.675Z,88.86297
2022-11-16T01:08:22.552Z,89.3088
2022-11-16T01:13:24.319Z,90.1337
2022-11-16T01:18:26.190Z,90.12779
2022-11-16T01:23:28.155Z,100
2022-11-16T01:28:30.083Z,100
2022-11-16T01:33:31.997Z,95.68752
2022-11-16T01:38:34.475Z,92.88415
2022-11-16T01:43:36.423Z,89.65949
2022-11-16T01:48:38.401Z,91.75007
2022-11-16T01:53:40.488Z,92.03023
2022-11-16T01:58:42.217Z,92.12885
2022-11-16T02:03:44.200Z,95.92313
2022-11-16T02:08:45.715Z,92.59556
2022-11-16T02:13:47.387Z,91.70763
2022-11-16T02:18:48.900Z,94.26207
2022-11-16T02:23:50.530Z,93.19618
2022-11-16T02:28:52.315Z,95.67594
2022-11-16T02:33:55.179Z,96.59255
2022-11-16T02:38:56.947Z,93.59587
2022-11-16T02:43:58.871Z,97.91166
2022-11-16T02:49:00.307Z,98.65164
2022-11-16T02:54:02.021Z,98.15724
2022-11-16T02:59:03.623Z,99.58621
2022-11-16T03:04:05.417Z,99.7872
2022-11-16T03:09:07.185Z,100
2022-11-16T03:14:08.649Z,96.87443
2022-11-16T03:19:10.268Z,98.41783
2022-11-16T03:24:11.799Z,98.98781
2022-11-16T03:29:13.539Z,99.17742
2022-11-16T03:34:15.260Z,96.57253
2022-11-16T03:39:16.746Z,99.61011
2022-11-16T03:44:18.636Z,96.08029
2022-11-16T03:49:20.664Z,96.53457
2022-11-16T03:54:22.196Z,99.21153
2022-11-16T03:59:23.645Z,97.35601
2022-11-16T04:04:25.410Z,95.05717
2022-11-16T04:09:26.945Z,99.08797
2022-11-16T04:14:28.657Z,98.80551
2022-11-16T04:19:30.106Z,97.9884
2022-11-16T04:24:31.695Z,99.7963
2022-11-16T04:29:33.290Z,92.59122
2022-11-16T04:34:35.123Z,92.98562
2022-11-16T04:39:36.838Z,89.1523
2022-11-16T04:44:38.366Z,84.12786
2022-11-16T04:49:39.824Z,81.01555
2022-11-16T04:54:41.463Z,76.89055
2022-11-16T04:59:43.403Z,73.9387
2022-11-16T05:04:45.165Z,74.19783
2022-11-16T05:09:46.756Z,73.56331
2022-11-16T05:14:48.223Z,70.09909
2022-11-16T05:19:50.024Z,66.68563
2022-11-16T05:24:51.939Z,66.61269
2022-11-16T05:29:53.746Z,65.97263
2022-11-16T05:34:55.819Z,65.44759
2022-11-16T05:39:57.825Z,65.11802
2022-11-16T05:44:59.676Z,61.36205
2022-11-16T05:50:01.481Z,61.15463
2022-11-16T05:55:03.540Z,60.03168
2022-11-16T06:00:05.586Z,60.11284
2022-11-16T06:05:07.588Z,56.77781
2022-11-16T06:10:09.428Z,57.42142
2022-11-16T06:15:11.251Z,57.68139
2022-11-16T06:20:12.721Z,56.16031
2022-11-16T06:25:14.550Z,54.75372
2022-11-16T06:30:16.333Z,54.56559
2022-11-16T06:35:18.591Z,56.54358
2022-11-16T06:40:20.409Z,56.78121
2022-11-16T06:45:22.377Z,54.176
2022-11-16T06:50:24.175Z,50.00999
2022-11-16T06:55:26.141Z,52.22792
2022-11-16T07:00:28.207Z,52.68917
2022-11-16T07:05:30.227Z,49.00255
2022-11-16T07:10:32.234Z,49.28535
2022-11-16T07:15:33.654Z,47.70388
2022-11-16T07:20:35.406Z,45.94384
2022-11-16T07:25:37.083Z,45.12311
2022-11-16T07:30:38.725Z,46.60559
2022-11-16T07:35:40.454Z,47.95045
2022-11-16T07:40:42.192Z,44.71582
2022-11-16T07:45:43.697Z,44.88719
2022-11-16T07:50:45.482Z,44.47051
2022-11-16T07:55:47.302Z,44.80272
2022-11-16T08:00:49.023Z,45.35842
2022-11-16T08:05:50.963Z,46.5012
2022-11-16T08:10:52.945Z,46.86638
2022-11-16T08:15:55.042Z,44.57436
2022-11-16T08:20:56.898Z,43.38028
2022-11-16T08:25:58.750Z,40.44419
2022-11-16T08:31:00.672Z,39.76288
2022-11-16T08:36:02.671Z,38.88213
2022-11-16T08:41:05.025Z,41.67629
2022-11-16T08:46:07.087Z,36.75653
2022-11-16T08:51:18.594Z,41.11085
2022-11-16T08:56:22.119Z,38.04382
2022-11-16T09:01:24.008Z,36.29386
2022-11-16T09:06:26.090Z,35.69299
2022-11-16T09:11:28.044Z,36.8235
2022-11-16T09:16:30.515Z,37.98372
2022-11-16T09:21:32.511Z,35.53914
2022-11-16T09:26:34.104Z,36.72549
2022-11-16T09:31:37.005Z,32.67595
2022-11-16T09:36:38.620Z,39.32097
2022-11-16T09:41:40.187Z,36.41686
2022-11-16T09:46:41.902Z,36.09639
2022-11-16T09:51:43.397Z,33.97913
2022-11-16T09:56:45.049Z,36.95099
2022-11-16T10:01:46.735Z,36.95435
2022-11-16T10:06:49.624Z,34.36516
2022-11-16T10:11:52.796Z,33.69198
2022-11-16T10:16:54.903Z,33.36999
2022-11-16T10:21:56.402Z,34.86802
2022-11-16T10:26:59.947Z,36.537
2022-11-16T10:32:01.566Z,35.64589
2022-11-16T10:37:03.282Z,33.97261
2022-11-16T10:42:07.638Z,35.67845
2022-11-16T10:47:09.676Z,36.21536
2022-11-16T10:52:11.347Z,34.82
2022-11-16T10:57:12.825Z,34.91868
2022-11-16T11:02:14.612Z,34.91337
2022-11-16T11:07:16.670Z,35.35907
2022-11-16T11:12:18.323Z,32.55678
2022-11-16T11:17:19.930Z,36.99238
2022-11-16T11:22:21.512Z,36.95256
2022-11-16T11:27:24.431Z,34.01029
2022-11-16T11:32:25.935Z,33.23749
2022-11-16T11:37:28.371Z,34.66494
2022-11-16T11:42:29.865Z,37.67613
2022-11-16T11:47:57.803Z,35.01606
2022-11-16T11:53:01.546Z,32.45945
2022-11-16T11:58:03.576Z,35.39237
2022-11-16T12:03:05.609Z,35.53562
2022-11-16T12:08:07.595Z,34.56384
2022-11-16T12:13:09.409Z,34.27682
2022-11-16T12:18:11.291Z,36.28298
2022-11-16T12:23:13.110Z,33.95709
2022-11-16T12:28:16.145Z,33.36669
2022-11-16T12:33:17.932Z,34.40019
2022-11-16T12:38:25.888Z,34.65136
2022-11-16T12:43:28.827Z,32.07879
2022-11-16T12:48:30.595Z,34.02674
2022-11-16T12:53:32.826Z,34.50962
2022-11-16T12:58:34.664Z,33.83511
2022-11-16T13:03:37.954Z,34.82432
2022-11-16T13:08:39.915Z,33.6662
2022-11-16T13:13:41.537Z,35.6119
2022-11-16T13:18:43.016Z,34.6446
2022-11-16T13:23:45.153Z,33.79645
2022-11-16T13:28:47.973Z,33.98494
2022-11-16T13:33:51.002Z,33.47082
2022-11-16T13:38:53.267Z,33.81532
2022-11-16T13:43:55.414Z,35.59833
2022-11-16T13:48:57.126Z,33.3282
2022-11-16T13:59:31.480Z,34.89622
2022-11-16T14:04:33.884Z,35.91575
2022-11-16T14:09:35.631Z,33.84414
2022-11-16T14:14:38.587Z,33.52837
2022-11-16T14:19:40.143Z,34.64877
2022-11-16T14:24:53.214Z,35.36131
2022-11-16T14:29:55.160Z,34.96803
2022-11-16T14:34:56.927Z,34.69957
2022-11-16T14:39:58.887Z,34.8364
2022-11-16T14:45:00.990Z,35.74997
2022-11-16T14:50:02.842Z,36.16065
2022-11-16T14:55:04.614Z,36.27834
2022-11-16T15:07:21.286Z,37.84081
2022-11-16T15:12:23.046Z,35.80368
2022-11-16T15:17:31.705Z,37.77098
2022-11-16T15:22:33.875Z,37.7497
2022-11-16T15:27:35.507Z,38.58824
2022-11-16T15:32:37.013Z,38.93084
2022-11-16T15:37:38.475Z,39.32853
2022-11-16T15:42:40.606Z,38.95217
2022-11-16T15:58:03.739Z,38.58773
2022-11-16T16:03:05.870Z,39.31773
2022-11-16T16:08:07.687Z,39.89053
2022-11-16T16:13:09.649Z,42.43671
2022-11-16T16:18:11.458Z,40.99781
2022-11-16T16:23:13.255Z,41.00383
2022-11-16T16:28:19.218Z,41.9719
2022-11-16T16:33:21.034Z,42.64982
2022-11-16T16:38:22.670Z,42.68861
2022-11-16T16:43:24.757Z,43.04213
2022-11-16T16:48:26.502Z,42.61935
2022-11-16T16:53:28.445Z,42.55298
2022-11-16T16:58:30.636Z,43.10634
2022-11-16T17:03:33.113Z,44.21001
2022-11-16T17:08:35.128Z,44.35808
2022-11-16T17:13:37.019Z,44.58728
2022-11-16T17:18:38.702Z,42.93359
2022-11-16T17:23:40.296Z,45.37303
2022-11-16T17:28:42.223Z,47.20579
2022-11-16T17:33:43.698Z,55.77413
2022-11-16T17:38:45.265Z,55.06758
2022-11-16T17:43:46.854Z,58.1056
2022-11-16T17:48:48.396Z,57.08717
2022-11-16T17:53:50.112Z,55.52307
2022-11-16T17:58:52.078Z,54.59897
2022-11-16T18:03:53.523Z,63.13852
2022-11-16T18:08:55.142Z,69.17788
2022-11-16T18:13:56.845Z,73.85179
2022-11-16T18:18:58.311Z,73.2746
2022-11-16T18:24:00.401Z,75.28964
2022-11-16T18:29:02.505Z,75.54861
2022-11-16T18:34:04.021Z,74.01091
2022-11-16T18:39:05.674Z,75.34963
2022-11-16T18:44:07.364Z,70.91448
2022-11-16T18:49:09.032Z,69.12878
2022-11-16T18:54:10.793Z,68.84654
2022-11-16T18:59:12.781Z,69.03295
2022-11-16T19:04:14.657Z,67.96625
2022-11-16T19:09:16.409Z,68.03154
2022-11-16T19:14:18.367Z,68.2805
2022-11-16T19:19:20.085Z,67.91374
2022-11-16T19:24:21.931Z,69.46875
2022-11-16T19:29:24.074Z,66.46257
2022-11-16T19:34:31.958Z,67.70995
2022-11-16T19:39:34.943Z,69.05501
2022-11-16T19:44:36.508Z,70.50393
2022-11-16T19:49:38.079Z,68.39113
2022-11-16T19:54:40.080Z,71.61782
2022-11-16T19:59:41.793Z,67.73707
2022-11-16T20:04:43.593Z,72.91708
2022-11-16T20:09:48.188Z,71.82514
2022-11-16T20:14:54.064Z,69.55879
2022-11-16T20:19:55.586Z,69.9938
2022-11-16T20:24:57.339Z,69.66568
2022-11-16T20:30:03.744Z,69.02024
2022-11-16T20:35:08.537Z,69.48534
2022-11-16T20:40:10.311Z,68.92296
2022-11-16T20:45:12.145Z,70.69567
2022-11-16T20:50:13.729Z,70.5626
2022-11-16T20:55:15.656Z,70.43026
2022-11-16T21:00:18.101Z,72.5785
2022-11-16T21:05:19.916Z,70.30049
2022-11-16T21:10:21.588Z,74.17615
2022-11-16T21:15:23.615Z,76.33647
2022-11-16T21:20:27.874Z,75.72482
2022-11-16T21:25:30.551Z,73.54386
2022-11-16T21:30:32.828Z,71.78488
2022-11-16T21:35:34.625Z,75.46278
2022-11-16T21:40:36.396Z,74.65217
2022-11-16T21:45:38.235Z,74.99074
2022-11-16T21:50:39.749Z,75.09745
2022-11-16T21:55:41.352Z,73.51445
2022-11-16T22:00:43.254Z,72.68887
2022-11-16T22:05:44.724Z,73.92069
2022-11-16T22:10:46.229Z,78.0041
2022-11-16T22:15:48.001Z,73.58697
2022-11-16T22:20:49.879Z,76.90269
2022-11-16T22:25:51.599Z,77.42256
2022-11-16T22:30:53.895Z,75.47189
2022-11-16T22:35:55.669Z,76.68086
2022-11-16T22:40:57.543Z,76.86012
2022-11-16T22:45:59.505Z,77.44362
2022-11-16T22:51:01.428Z,76.83188
2022-11-16T22:56:03.130Z,78.24398
2022-11-16T23:01:05.105Z,79.66927
2022-11-16T23:06:07.035Z,80.21771
2022-11-16T23:11:08.695Z,81.51753
2022-11-16T23:16:10.437Z,80.87434
2022-11-16T23:21:12.283Z,80.38693
2022-11-16T23:26:15.284Z,79.21771
2022-11-16T23:31:18.173Z,79.17739
2022-11-16T23:36:20.706Z,83.92742
2022-11-16T23:41:22.592Z,90.08968
2022-11-16T23:46:24.681Z,96.17479
2022-11-16T23:51:26.694Z,91.35383
2022-11-16T23:56:28.631Z,88.59983
